sensor_id;sensor_type;location;lat;lon;timestamp;P1;durP1;ratioP1;P2;durP2;ratioP2
32748;SDS011;19119;52.474;13.710;2022-08-19T00:02:03;16.63;;;13.23;;
32748;SDS011;19119;52.474;13.710;2022-08-19T00:04:30;17.38;;;13.68;;
32748;SDS011;19119;52.474;13.710;2022-08-19T00:07:00;17.92;;;12.90;;
32748;SDS011;19119;52.474;13.710;2022-08-19T00:09:26;18.88;;;12.35;;
32748;SDS011;19119;52.474;13.710;2022-08-19T00:11:52;18.00;;;11.77;;
32748;SDS011;19119;52.474;13.710;2022-08-19T00:14:20;14.75;;;13.25;;
32748;SDS011;19119;52.474;13.710;2022-08-19T00:16:47;12.80;;;11.32;;
32748;SDS011;19119;52.474;13.710;2022-08-19T00:19:14;14.65;;;12.82;;
32748;SDS011;19119;52.474;13.710;2022-08-19T00:21:40;17.42;;;13.88;;
32748;SDS011;19119;52.474;13.710;2022-08-19T00:24:06;17.90;;;13.23;;
32748;SDS011;19119;52.474;13.710;2022-08-19T00:26:33;22.15;;;13.75;;
32748;SDS011;19119;52.474;13.710;2022-08-19T00:29:00;20.42;;;14.27;;
32748;SDS011;19119;52.474;13.710;2022-08-19T00:31:26;22.15;;;15.70;;
32748;SDS011;19119;52.474;13.710;2022-08-19T00:33:52;19.02;;;15.88;;
32748;SDS011;19119;52.474;13.710;2022-08-19T00:36:18;15.77;;;13.65;;
32748;SDS011;19119;52.474;13.710;2022-08-19T00:38:45;17.88;;;14.43;;
32748;SDS011;19119;52.474;13.710;2022-08-19T00:41:15;16.52;;;12.85;;
32748;SDS011;19119;52.474;13.710;2022-08-19T00:43:56;16.65;;;14.00;;
32748;SDS011;19119;52.474;13.710;2022-08-19T00:46:30;16.35;;;12.80;;
32748;SDS011;19119;52.474;13.710;2022-08-19T00:48:58;18.63;;;14.30;;
32748;SDS011;19119;52.474;13.710;2022-08-19T00:51:25;20.00;;;12.88;;
32748;SDS011;19119;52.474;13.710;2022-08-19T00:53:55;16.83;;;14.07;;
32748;SDS011;19119;52.474;13.710;2022-08-19T00:56:23;16.55;;;12.88;;
32748;SDS011;19119;52.474;13.710;2022-08-19T00:58:48;16.17;;;13.30;;
32748;SDS011;19119;52.474;13.710;2022-08-19T01:01:14;16.83;;;12.68;;
32748;SDS011;19119;52.474;13.710;2022-08-19T01:03:40;22.90;;;13.68;;
32748;SDS011;19119;52.474;13.710;2022-08-19T01:06:06;19.23;;;14.18;;
32748;SDS011;19119;52.474;13.710;2022-08-19T01:08:32;19.73;;;14.55;;
32748;SDS011;19119;52.474;13.710;2022-08-19T01:10:58;27.33;;;14.52;;
32748;SDS011;19119;52.474;13.710;2022-08-19T01:13:29;25.35;;;15.63;;
32748;SDS011;19119;52.474;13.710;2022-08-19T01:16:02;20.20;;;12.82;;
32748;SDS011;19119;52.474;13.710;2022-08-19T01:18:35;18.88;;;13.32;;
32748;SDS011;19119;52.474;13.710;2022-08-19T01:21:05;18.52;;;13.85;;
32748;SDS011;19119;52.474;13.710;2022-08-19T01:23:56;26.02;;;15.32;;
32748;SDS011;19119;52.474;13.710;2022-08-19T01:26:22;22.73;;;14.80;;
32748;SDS011;19119;52.474;13.710;2022-08-19T01:28:49;24.92;;;15.30;;
32748;SDS011;19119;52.474;13.710;2022-08-19T01:31:18;26.67;;;16.98;;
32748;SDS011;19119;52.474;13.710;2022-08-19T01:33:46;20.45;;;13.82;;
32748;SDS011;19119;52.474;13.710;2022-08-19T01:36:21;22.98;;;13.75;;
32748;SDS011;19119;52.474;13.710;2022-08-19T01:38:50;17.60;;;13.50;;
32748;SDS011;19119;52.474;13.710;2022-08-19T01:41:17;20.23;;;15.48;;
32748;SDS011;19119;52.474;13.710;2022-08-19T01:43:43;16.63;;;13.82;;
32748;SDS011;19119;52.474;13.710;2022-08-19T01:46:09;20.73;;;13.77;;
32748;SDS011;19119;52.474;13.710;2022-08-19T01:48:36;19.70;;;13.77;;
32748;SDS011;19119;52.474;13.710;2022-08-19T01:51:04;19.63;;;12.95;;
32748;SDS011;19119;52.474;13.710;2022-08-19T01:53:29;16.80;;;14.00;;
32748;SDS011;19119;52.474;13.710;2022-08-19T01:55:55;14.82;;;12.43;;
32748;SDS011;19119;52.474;13.710;2022-08-19T01:58:23;20.35;;;14.52;;
32748;SDS011;19119;52.474;13.710;2022-08-19T02:00:55;20.45;;;14.43;;
32748;SDS011;19119;52.474;13.710;2022-08-19T02:03:21;18.80;;;15.77;;
32748;SDS011;19119;52.474;13.710;2022-08-19T02:05:47;22.30;;;16.50;;
32748;SDS011;19119;52.474;13.710;2022-08-19T02:08:18;20.65;;;16.55;;
32748;SDS011;19119;52.474;13.710;2022-08-19T02:10:43;19.27;;;16.27;;
32748;SDS011;19119;52.474;13.710;2022-08-19T02:13:10;21.50;;;16.27;;
32748;SDS011;19119;52.474;13.710;2022-08-19T02:15:37;19.75;;;15.40;;
32748;SDS011;19119;52.474;13.710;2022-08-19T02:18:03;22.38;;;16.20;;
32748;SDS011;19119;52.474;13.710;2022-08-19T02:20:28;21.73;;;16.05;;
32748;SDS011;19119;52.474;13.710;2022-08-19T02:22:54;22.70;;;14.65;;
32748;SDS011;19119;52.474;13.710;2022-08-19T02:25:19;20.55;;;16.88;;
32748;SDS011;19119;52.474;13.710;2022-08-19T02:27:45;18.60;;;14.20;;
32748;SDS011;19119;52.474;13.710;2022-08-19T02:30:12;17.17;;;14.68;;
32748;SDS011;19119;52.474;13.710;2022-08-19T02:32:41;19.75;;;15.43;;
32748;SDS011;19119;52.474;13.710;2022-08-19T02:35:07;17.63;;;13.80;;
32748;SDS011;19119;52.474;13.710;2022-08-19T02:37:33;22.80;;;15.10;;
32748;SDS011;19119;52.474;13.710;2022-08-19T02:40:18;20.10;;;16.60;;
32748;SDS011;19119;52.474;13.710;2022-08-19T02:42:45;22.00;;;15.98;;
32748;SDS011;19119;52.474;13.710;2022-08-19T02:45:10;19.38;;;14.73;;
32748;SDS011;19119;52.474;13.710;2022-08-19T02:47:37;20.40;;;16.23;;
32748;SDS011;19119;52.474;13.710;2022-08-19T02:50:03;22.83;;;16.65;;
32748;SDS011;19119;52.474;13.710;2022-08-19T02:52:31;20.70;;;16.25;;
32748;SDS011;19119;52.474;13.710;2022-08-19T02:54:57;21.23;;;16.70;;
32748;SDS011;19119;52.474;13.710;2022-08-19T02:57:23;20.33;;;17.30;;
32748;SDS011;19119;52.474;13.710;2022-08-19T02:59:49;21.45;;;17.00;;
32748;SDS011;19119;52.474;13.710;2022-08-19T03:02:15;21.50;;;16.08;;
32748;SDS011;19119;52.474;13.710;2022-08-19T03:04:41;21.10;;;17.80;;
32748;SDS011;19119;52.474;13.710;2022-08-19T03:07:08;27.52;;;17.80;;
32748;SDS011;19119;52.474;13.710;2022-08-19T03:09:36;22.42;;;16.85;;
32748;SDS011;19119;52.474;13.710;2022-08-19T03:12:03;20.33;;;16.65;;
32748;SDS011;19119;52.474;13.710;2022-08-19T03:14:32;21.15;;;17.08;;
32748;SDS011;19119;52.474;13.710;2022-08-19T03:16:59;24.75;;;19.27;;
32748;SDS011;19119;52.474;13.710;2022-08-19T03:19:25;22.52;;;17.50;;
32748;SDS011;19119;52.474;13.710;2022-08-19T03:21:51;22.52;;;17.42;;
32748;SDS011;19119;52.474;13.710;2022-08-19T03:24:17;22.17;;;17.02;;
32748;SDS011;19119;52.474;13.710;2022-08-19T03:26:45;21.75;;;15.30;;
32748;SDS011;19119;52.474;13.710;2022-08-19T03:29:17;18.90;;;15.85;;
32748;SDS011;19119;52.474;13.710;2022-08-19T03:31:44;21.17;;;16.63;;
32748;SDS011;19119;52.474;13.710;2022-08-19T03:34:10;21.95;;;16.67;;
32748;SDS011;19119;52.474;13.710;2022-08-19T03:36:37;21.15;;;16.67;;
32748;SDS011;19119;52.474;13.710;2022-08-19T03:39:03;19.23;;;16.50;;
32748;SDS011;19119;52.474;13.710;2022-08-19T03:41:30;18.83;;;15.55;;
32748;SDS011;19119;52.474;13.710;2022-08-19T03:43:57;18.70;;;13.63;;
32748;SDS011;19119;52.474;13.710;2022-08-19T03:46:27;15.18;;;13.52;;
32748;SDS011;19119;52.474;13.710;2022-08-19T03:48:56;17.27;;;13.02;;
32748;SDS011;19119;52.474;13.710;2022-08-19T03:51:24;17.42;;;13.40;;
32748;SDS011;19119;52.474;13.710;2022-08-19T03:53:56;21.60;;;15.30;;
32748;SDS011;19119;52.474;13.710;2022-08-19T03:56:23;18.00;;;13.57;;
32748;SDS011;19119;52.474;13.710;2022-08-19T03:58:50;16.38;;;14.13;;
32748;SDS011;19119;52.474;13.710;2022-08-19T04:01:18;18.05;;;14.73;;
32748;SDS011;19119;52.474;13.710;2022-08-19T04:03:45;15.55;;;13.13;;
32748;SDS011;19119;52.474;13.710;2022-08-19T04:06:22;20.83;;;14.98;;
32748;SDS011;19119;52.474;13.710;2022-08-19T04:08:50;24.13;;;15.93;;
32748;SDS011;19119;52.474;13.710;2022-08-19T04:11:20;17.40;;;15.02;;
32748;SDS011;19119;52.474;13.710;2022-08-19T04:13:53;21.08;;;16.33;;
32748;SDS011;19119;52.474;13.710;2022-08-19T04:16:24;20.80;;;14.73;;
32748;SDS011;19119;52.474;13.710;2022-08-19T04:18:53;19.60;;;15.38;;
32748;SDS011;19119;52.474;13.710;2022-08-19T04:21:21;21.40;;;15.13;;
32748;SDS011;19119;52.474;13.710;2022-08-19T04:23:49;17.33;;;15.38;;
32748;SDS011;19119;52.474;13.710;2022-08-19T04:26:15;18.60;;;15.15;;
32748;SDS011;19119;52.474;13.710;2022-08-19T04:28:43;16.23;;;13.55;;
32748;SDS011;19119;52.474;13.710;2022-08-19T04:31:12;16.58;;;14.70;;
32748;SDS011;19119;52.474;13.710;2022-08-19T04:33:40;17.98;;;13.57;;
32748;SDS011;19119;52.474;13.710;2022-08-19T04:36:06;16.77;;;13.05;;
32748;SDS011;19119;52.474;13.710;2022-08-19T04:38:32;17.17;;;13.55;;
32748;SDS011;19119;52.474;13.710;2022-08-19T04:40:58;15.40;;;13.52;;
32748;SDS011;19119;52.474;13.710;2022-08-19T04:43:42;15.65;;;13.20;;
32748;SDS011;19119;52.474;13.710;2022-08-19T04:46:12;15.32;;;13.73;;
32748;SDS011;19119;52.474;13.710;2022-08-19T04:48:38;16.13;;;13.57;;
32748;SDS011;19119;52.474;13.710;2022-08-19T04:51:08;16.17;;;12.93;;
32748;SDS011;19119;52.474;13.710;2022-08-19T04:53:36;15.57;;;13.30;;
32748;SDS011;19119;52.474;13.710;2022-08-19T04:56:04;18.38;;;13.63;;
32748;SDS011;19119;52.474;13.710;2022-08-19T04:58:35;14.77;;;12.90;;
32748;SDS011;19119;52.474;13.710;2022-08-19T05:01:02;18.10;;;14.27;;
32748;SDS011;19119;52.474;13.710;2022-08-19T05:03:29;16.40;;;14.43;;
32748;SDS011;19119;52.474;13.710;2022-08-19T05:05:59;14.10;;;12.20;;
32748;SDS011;19119;52.474;13.710;2022-08-19T05:08:32;16.10;;;12.27;;
32748;SDS011;19119;52.474;13.710;2022-08-19T05:10:58;16.95;;;12.95;;
32748;SDS011;19119;52.474;13.710;2022-08-19T05:13:24;15.25;;;12.75;;
32748;SDS011;19119;52.474;13.710;2022-08-19T05:15:54;14.68;;;11.50;;
32748;SDS011;19119;52.474;13.710;2022-08-19T05:18:21;14.85;;;12.50;;
32748;SDS011;19119;52.474;13.710;2022-08-19T05:21:09;18.13;;;12.55;;
32748;SDS011;19119;52.474;13.710;2022-08-19T05:23:57;13.48;;;11.48;;
32748;SDS011;19119;52.474;13.710;2022-08-19T05:26:23;14.77;;;12.05;;
32748;SDS011;19119;52.474;13.710;2022-08-19T05:28:51;14.43;;;12.75;;
32748;SDS011;19119;52.474;13.710;2022-08-19T05:31:17;17.23;;;12.82;;
32748;SDS011;19119;52.474;13.710;2022-08-19T05:33:42;17.95;;;14.32;;
32748;SDS011;19119;52.474;13.710;2022-08-19T05:36:08;17.63;;;14.50;;
32748;SDS011;19119;52.474;13.710;2022-08-19T05:38:33;17.90;;;14.57;;
32748;SDS011;19119;52.474;13.710;2022-08-19T05:41:00;15.70;;;13.07;;
32748;SDS011;19119;52.474;13.710;2022-08-19T05:43:31;15.30;;;13.65;;
32748;SDS011;19119;52.474;13.710;2022-08-19T05:45:57;17.70;;;15.43;;
32748;SDS011;19119;52.474;13.710;2022-08-19T05:48:23;19.23;;;15.02;;
32748;SDS011;19119;52.474;13.710;2022-08-19T05:50:48;19.52;;;13.45;;
32748;SDS011;19119;52.474;13.710;2022-08-19T05:53:15;18.33;;;15.43;;
32748;SDS011;19119;52.474;13.710;2022-08-19T05:55:41;15.88;;;13.65;;
32748;SDS011;19119;52.474;13.710;2022-08-19T05:58:06;17.17;;;14.20;;
32748;SDS011;19119;52.474;13.710;2022-08-19T06:00:32;19.70;;;14.82;;
32748;SDS011;19119;52.474;13.710;2022-08-19T06:02:58;16.88;;;15.07;;
32748;SDS011;19119;52.474;13.710;2022-08-19T06:05:27;19.38;;;15.57;;
32748;SDS011;19119;52.474;13.710;2022-08-19T06:07:54;18.33;;;15.88;;
32748;SDS011;19119;52.474;13.710;2022-08-19T06:10:19;20.50;;;16.45;;
32748;SDS011;19119;52.474;13.710;2022-08-19T06:12:46;21.30;;;16.83;;
32748;SDS011;19119;52.474;13.710;2022-08-19T06:15:13;18.00;;;16.05;;
32748;SDS011;19119;52.474;13.710;2022-08-19T06:17:39;18.98;;;14.82;;
32748;SDS011;19119;52.474;13.710;2022-08-19T06:20:07;19.75;;;16.80;;
32748;SDS011;19119;52.474;13.710;2022-08-19T06:22:37;18.77;;;16.60;;
32748;SDS011;19119;52.474;13.710;2022-08-19T06:25:05;20.10;;;16.98;;
32748;SDS011;19119;52.474;13.710;2022-08-19T06:27:30;18.58;;;15.70;;
32748;SDS011;19119;52.474;13.710;2022-08-19T06:29:57;18.98;;;16.40;;
32748;SDS011;19119;52.474;13.710;2022-08-19T06:32:23;22.02;;;17.10;;
32748;SDS011;19119;52.474;13.710;2022-08-19T06:34:48;20.38;;;16.95;;
32748;SDS011;19119;52.474;13.710;2022-08-19T06:37:14;22.65;;;17.63;;
32748;SDS011;19119;52.474;13.710;2022-08-19T06:39:41;23.55;;;16.63;;
32748;SDS011;19119;52.474;13.710;2022-08-19T06:42:07;21.55;;;16.65;;
32748;SDS011;19119;52.474;13.710;2022-08-19T06:44:36;22.58;;;17.10;;
32748;SDS011;19119;52.474;13.710;2022-08-19T06:47:04;21.70;;;17.85;;
32748;SDS011;19119;52.474;13.710;2022-08-19T06:49:31;19.30;;;17.17;;
32748;SDS011;19119;52.474;13.710;2022-08-19T06:51:57;23.45;;;18.40;;
32748;SDS011;19119;52.474;13.710;2022-08-19T06:54:24;20.67;;;17.98;;
32748;SDS011;19119;52.474;13.710;2022-08-19T06:56:51;20.13;;;17.88;;
32748;SDS011;19119;52.474;13.710;2022-08-19T06:59:17;21.75;;;17.98;;
32748;SDS011;19119;52.474;13.710;2022-08-19T07:01:49;22.90;;;19.38;;
32748;SDS011;19119;52.474;13.710;2022-08-19T07:04:18;22.60;;;18.60;;
32748;SDS011;19119;52.474;13.710;2022-08-19T07:06:46;22.17;;;17.58;;
32748;SDS011;19119;52.474;13.710;2022-08-19T07:09:13;23.50;;;17.70;;
32748;SDS011;19119;52.474;13.710;2022-08-19T07:11:44;20.63;;;17.35;;
32748;SDS011;19119;52.474;13.710;2022-08-19T07:14:11;21.17;;;17.95;;
32748;SDS011;19119;52.474;13.710;2022-08-19T07:16:37;21.27;;;19.00;;
32748;SDS011;19119;52.474;13.710;2022-08-19T07:19:02;20.75;;;17.58;;
32748;SDS011;19119;52.474;13.710;2022-08-19T07:21:28;22.98;;;18.10;;
32748;SDS011;19119;52.474;13.710;2022-08-19T07:23:54;21.63;;;18.08;;
32748;SDS011;19119;52.474;13.710;2022-08-19T07:26:23;25.65;;;18.75;;
32748;SDS011;19119;52.474;13.710;2022-08-19T07:28:51;22.92;;;17.38;;
32748;SDS011;19119;52.474;13.710;2022-08-19T07:31:17;22.70;;;18.77;;
32748;SDS011;19119;52.474;13.710;2022-08-19T07:33:45;21.25;;;18.55;;
32748;SDS011;19119;52.474;13.710;2022-08-19T07:36:13;22.02;;;18.98;;
32748;SDS011;19119;52.474;13.710;2022-08-19T07:38:42;23.90;;;18.80;;
32748;SDS011;19119;52.474;13.710;2022-08-19T07:41:09;23.00;;;18.75;;
32748;SDS011;19119;52.474;13.710;2022-08-19T07:43:39;20.40;;;17.25;;
32748;SDS011;19119;52.474;13.710;2022-08-19T07:46:05;25.63;;;18.90;;
32748;SDS011;19119;52.474;13.710;2022-08-19T07:48:32;21.67;;;18.50;;
32748;SDS011;19119;52.474;13.710;2022-08-19T07:50:59;21.80;;;17.75;;
32748;SDS011;19119;52.474;13.710;2022-08-19T07:53:29;24.75;;;18.30;;
32748;SDS011;19119;52.474;13.710;2022-08-19T07:55:56;21.88;;;18.73;;
32748;SDS011;19119;52.474;13.710;2022-08-19T07:58:28;21.38;;;17.77;;
32748;SDS011;19119;52.474;13.710;2022-08-19T08:00:54;23.83;;;18.33;;
32748;SDS011;19119;52.474;13.710;2022-08-19T08:03:20;22.77;;;17.20;;
32748;SDS011;19119;52.474;13.710;2022-08-19T08:06:07;20.48;;;16.90;;
32748;SDS011;19119;52.474;13.710;2022-08-19T08:08:52;21.10;;;16.15;;
32748;SDS011;19119;52.474;13.710;2022-08-19T08:11:40;20.48;;;17.75;;
32748;SDS011;19119;52.474;13.710;2022-08-19T08:14:08;20.07;;;17.93;;
32748;SDS011;19119;52.474;13.710;2022-08-19T08:16:35;21.13;;;17.40;;
32748;SDS011;19119;52.474;13.710;2022-08-19T08:19:03;20.70;;;17.92;;
32748;SDS011;19119;52.474;13.710;2022-08-19T08:21:30;19.73;;;17.55;;
32748;SDS011;19119;52.474;13.710;2022-08-19T08:23:57;21.00;;;18.83;;
32748;SDS011;19119;52.474;13.710;2022-08-19T08:26:23;22.20;;;17.92;;
32748;SDS011;19119;52.474;13.710;2022-08-19T08:28:49;21.30;;;18.00;;
32748;SDS011;19119;52.474;13.710;2022-08-19T08:31:15;20.33;;;17.60;;
32748;SDS011;19119;52.474;13.710;2022-08-19T08:33:43;21.02;;;16.90;;
32748;SDS011;19119;52.474;13.710;2022-08-19T08:36:09;22.50;;;17.65;;
32748;SDS011;19119;52.474;13.710;2022-08-19T08:38:38;20.55;;;18.33;;
32748;SDS011;19119;52.474;13.710;2022-08-19T08:41:51;22.98;;;17.92;;
32748;SDS011;19119;52.474;13.710;2022-08-19T08:44:05;22.13;;;17.42;;
32748;SDS011;19119;52.474;13.710;2022-08-19T08:46:41;21.80;;;17.30;;
32748;SDS011;19119;52.474;13.710;2022-08-19T08:52:02;20.25;;;15.50;;
32748;SDS011;19119;52.474;13.710;2022-08-19T08:54:32;18.10;;;14.30;;
32748;SDS011;19119;52.474;13.710;2022-08-19T08:57:10;19.48;;;16.15;;
32748;SDS011;19119;52.474;13.710;2022-08-19T08:59:46;16.95;;;14.88;;
32748;SDS011;19119;52.474;13.710;2022-08-19T09:02:16;18.85;;;15.45;;
32748;SDS011;19119;52.474;13.710;2022-08-19T09:04:42;21.05;;;15.20;;
32748;SDS011;19119;52.474;13.710;2022-08-19T09:13:31;21.38;;;16.02;;
32748;SDS011;19119;52.474;13.710;2022-08-19T09:16:00;17.67;;;15.50;;
32748;SDS011;19119;52.474;13.710;2022-08-19T09:18:41;19.42;;;15.20;;
32748;SDS011;19119;52.474;13.710;2022-08-19T09:21:14;18.75;;;14.85;;
32748;SDS011;19119;52.474;13.710;2022-08-19T09:23:40;19.90;;;15.77;;
32748;SDS011;19119;52.474;13.710;2022-08-19T09:26:08;16.45;;;14.32;;
32748;SDS011;19119;52.474;13.710;2022-08-19T09:28:39;16.73;;;14.57;;
32748;SDS011;19119;52.474;13.710;2022-08-19T09:31:09;20.25;;;16.30;;
32748;SDS011;19119;52.474;13.710;2022-08-19T09:33:36;17.60;;;15.77;;
32748;SDS011;19119;52.474;13.710;2022-08-19T09:36:08;21.27;;;15.52;;
32748;SDS011;19119;52.474;13.710;2022-08-19T09:38:36;17.65;;;14.88;;
32748;SDS011;19119;52.474;13.710;2022-08-19T09:41:06;17.98;;;14.85;;
32748;SDS011;19119;52.474;13.710;2022-08-19T09:43:33;17.08;;;15.10;;
32748;SDS011;19119;52.474;13.710;2022-08-19T09:46:04;16.17;;;14.50;;
32748;SDS011;19119;52.474;13.710;2022-08-19T09:48:32;24.27;;;16.15;;
32748;SDS011;19119;52.474;13.710;2022-08-19T09:53:34;17.60;;;15.65;;
32748;SDS011;19119;52.474;13.710;2022-08-19T09:56:00;17.90;;;14.38;;
32748;SDS011;19119;52.474;13.710;2022-08-19T09:58:26;16.00;;;13.63;;
32748;SDS011;19119;52.474;13.710;2022-08-19T10:00:54;17.67;;;13.35;;
32748;SDS011;19119;52.474;13.710;2022-08-19T10:03:21;15.35;;;12.68;;
32748;SDS011;19119;52.474;13.710;2022-08-19T10:05:47;14.90;;;13.30;;
32748;SDS011;19119;52.474;13.710;2022-08-19T10:08:20;15.05;;;13.32;;
32748;SDS011;19119;52.474;13.710;2022-08-19T10:10:48;15.35;;;13.75;;
32748;SDS011;19119;52.474;13.710;2022-08-19T10:13:16;17.23;;;14.27;;
32748;SDS011;19119;52.474;13.710;2022-08-19T10:15:43;15.70;;;13.63;;
32748;SDS011;19119;52.474;13.710;2022-08-19T10:18:09;15.57;;;13.98;;
32748;SDS011;19119;52.474;13.710;2022-08-19T10:20:34;18.58;;;13.70;;
32748;SDS011;19119;52.474;13.710;2022-08-19T10:23:01;18.25;;;14.40;;
32748;SDS011;19119;52.474;13.710;2022-08-19T10:25:27;17.90;;;15.00;;
32748;SDS011;19119;52.474;13.710;2022-08-19T10:27:53;17.27;;;13.88;;
32748;SDS011;19119;52.474;13.710;2022-08-19T10:30:19;16.23;;;14.45;;
32748;SDS011;19119;52.474;13.710;2022-08-19T10:32:45;16.95;;;14.57;;
32748;SDS011;19119;52.474;13.710;2022-08-19T10:35:11;16.88;;;14.82;;
32748;SDS011;19119;52.474;13.710;2022-08-19T10:37:37;16.50;;;14.40;;
32748;SDS011;19119;52.474;13.710;2022-08-19T10:40:04;17.13;;;13.68;;
32748;SDS011;19119;52.474;13.710;2022-08-19T10:42:32;16.17;;;12.98;;
32748;SDS011;19119;52.474;13.710;2022-08-19T10:44:58;16.27;;;12.52;;
32748;SDS011;19119;52.474;13.710;2022-08-19T10:47:23;21.30;;;13.02;;
32748;SDS011;19119;52.474;13.710;2022-08-19T10:49:49;15.55;;;12.70;;
32748;SDS011;19119;52.474;13.710;2022-08-19T10:52:33;15.15;;;13.07;;
32748;SDS011;19119;52.474;13.710;2022-08-19T10:54:59;17.10;;;13.60;;
32748;SDS011;19119;52.474;13.710;2022-08-19T10:57:45;16.42;;;13.35;;
32748;SDS011;19119;52.474;13.710;2022-08-19T11:00:11;18.08;;;14.07;;
32748;SDS011;19119;52.474;13.710;2022-08-19T11:02:37;20.63;;;14.30;;
32748;SDS011;19119;52.474;13.710;2022-08-19T11:05:03;16.00;;;14.30;;
32748;SDS011;19119;52.474;13.710;2022-08-19T11:07:29;14.98;;;13.38;;
32748;SDS011;19119;52.474;13.710;2022-08-19T11:09:54;16.40;;;12.60;;
32748;SDS011;19119;52.474;13.710;2022-08-19T11:12:20;17.55;;;13.98;;
32748;SDS011;19119;52.474;13.710;2022-08-19T11:14:46;15.45;;;13.52;;
32748;SDS011;19119;52.474;13.710;2022-08-19T11:17:14;16.17;;;13.75;;
32748;SDS011;19119;52.474;13.710;2022-08-19T11:19:40;15.38;;;13.85;;
32748;SDS011;19119;52.474;13.710;2022-08-19T11:22:07;15.60;;;13.98;;
32748;SDS011;19119;52.474;13.710;2022-08-19T11:24:34;18.65;;;15.55;;
32748;SDS011;19119;52.474;13.710;2022-08-19T11:27:04;18.75;;;15.77;;
32748;SDS011;19119;52.474;13.710;2022-08-19T11:29:32;17.92;;;14.18;;
32748;SDS011;19119;52.474;13.710;2022-08-19T11:31:59;17.15;;;12.88;;
32748;SDS011;19119;52.474;13.710;2022-08-19T11:34:28;16.20;;;14.45;;
32748;SDS011;19119;52.474;13.710;2022-08-19T11:36:55;15.25;;;13.50;;
32748;SDS011;19119;52.474;13.710;2022-08-19T11:39:24;18.45;;;13.85;;
32748;SDS011;19119;52.474;13.710;2022-08-19T11:41:52;18.73;;;13.40;;
32748;SDS011;19119;52.474;13.710;2022-08-19T11:44:17;15.82;;;13.50;;
32748;SDS011;19119;52.474;13.710;2022-08-19T11:46:44;17.52;;;13.05;;
32748;SDS011;19119;52.474;13.710;2022-08-19T11:49:12;15.98;;;12.68;;
32748;SDS011;19119;52.474;13.710;2022-08-19T11:51:41;21.88;;;13.68;;
32748;SDS011;19119;52.474;13.710;2022-08-19T11:54:08;21.40;;;14.23;;
32748;SDS011;19119;52.474;13.710;2022-08-19T11:56:34;15.10;;;13.45;;
32748;SDS011;19119;52.474;13.710;2022-08-19T11:59:02;14.73;;;12.82;;
32748;SDS011;19119;52.474;13.710;2022-08-19T12:01:27;17.13;;;13.25;;
32748;SDS011;19119;52.474;13.710;2022-08-19T12:03:54;16.92;;;13.32;;
32748;SDS011;19119;52.474;13.710;2022-08-19T12:06:25;13.50;;;12.02;;
32748;SDS011;19119;52.474;13.710;2022-08-19T12:08:57;13.77;;;12.05;;
32748;SDS011;19119;52.474;13.710;2022-08-19T12:11:23;15.13;;;13.38;;
32748;SDS011;19119;52.474;13.710;2022-08-19T12:13:50;14.60;;;12.98;;
32748;SDS011;19119;52.474;13.710;2022-08-19T12:16:18;14.48;;;13.00;;
32748;SDS011;19119;52.474;13.710;2022-08-19T12:18:45;17.55;;;12.98;;
32748;SDS011;19119;52.474;13.710;2022-08-19T12:21:14;14.20;;;12.73;;
32748;SDS011;19119;52.474;13.710;2022-08-19T12:23:42;16.73;;;13.80;;
32748;SDS011;19119;52.474;13.710;2022-08-19T12:26:10;15.63;;;13.93;;
32748;SDS011;19119;52.474;13.710;2022-08-19T12:28:36;18.08;;;14.20;;
32748;SDS011;19119;52.474;13.710;2022-08-19T12:31:02;15.48;;;13.48;;
32748;SDS011;19119;52.474;13.710;2022-08-19T12:33:28;14.50;;;12.70;;
32748;SDS011;19119;52.474;13.710;2022-08-19T12:35:54;14.50;;;12.90;;
32748;SDS011;19119;52.474;13.710;2022-08-19T12:38:24;15.50;;;13.18;;
32748;SDS011;19119;52.474;13.710;2022-08-19T12:40:50;14.80;;;12.23;;
32748;SDS011;19119;52.474;13.710;2022-08-19T12:43:16;12.93;;;11.40;;
32748;SDS011;19119;52.474;13.710;2022-08-19T12:45:44;14.13;;;12.52;;
32748;SDS011;19119;52.474;13.710;2022-08-19T12:48:10;13.60;;;12.25;;
32748;SDS011;19119;52.474;13.710;2022-08-19T12:50:38;16.42;;;11.45;;
32748;SDS011;19119;52.474;13.710;2022-08-19T12:53:04;17.48;;;12.77;;
32748;SDS011;19119;52.474;13.710;2022-08-19T12:55:30;14.10;;;11.93;;
32748;SDS011;19119;52.474;13.710;2022-08-19T12:57:55;15.98;;;11.52;;
32748;SDS011;19119;52.474;13.710;2022-08-19T13:00:21;16.25;;;12.18;;
32748;SDS011;19119;52.474;13.710;2022-08-19T13:02:49;13.60;;;11.93;;
32748;SDS011;19119;52.474;13.710;2022-08-19T13:05:17;12.88;;;11.60;;
32748;SDS011;19119;52.474;13.710;2022-08-19T13:07:49;14.23;;;11.88;;
32748;SDS011;19119;52.474;13.710;2022-08-19T13:10:18;13.75;;;10.98;;
32748;SDS011;19119;52.474;13.710;2022-08-19T13:12:45;14.20;;;10.82;;
32748;SDS011;19119;52.474;13.710;2022-08-19T13:15:12;12.50;;;11.20;;
32748;SDS011;19119;52.474;13.710;2022-08-19T13:17:39;12.30;;;11.10;;
32748;SDS011;19119;52.474;13.710;2022-08-19T13:20:06;13.75;;;11.25;;
32748;SDS011;19119;52.474;13.710;2022-08-19T13:22:33;16.33;;;10.88;;
32748;SDS011;19119;52.474;13.710;2022-08-19T13:25:00;14.38;;;10.48;;
32748;SDS011;19119;52.474;13.710;2022-08-19T13:27:25;12.15;;;10.85;;
32748;SDS011;19119;52.474;13.710;2022-08-19T13:29:51;13.93;;;11.07;;
32748;SDS011;19119;52.474;13.710;2022-08-19T13:32:35;12.27;;;9.20;;
32748;SDS011;19119;52.474;13.710;2022-08-19T13:35:19;11.18;;;9.30;;
32748;SDS011;19119;52.474;13.710;2022-08-19T13:37:45;11.38;;;10.10;;
32748;SDS011;19119;52.474;13.710;2022-08-19T13:40:15;11.30;;;9.88;;
32748;SDS011;19119;52.474;13.710;2022-08-19T13:42:44;13.43;;;10.13;;
32748;SDS011;19119;52.474;13.710;2022-08-19T13:45:12;11.77;;;9.98;;
32748;SDS011;19119;52.474;13.710;2022-08-19T13:47:40;11.10;;;9.75;;
32748;SDS011;19119;52.474;13.710;2022-08-19T13:50:10;11.02;;;9.77;;
32748;SDS011;19119;52.474;13.710;2022-08-19T13:52:37;11.85;;;9.32;;
32748;SDS011;19119;52.474;13.710;2022-08-19T13:55:03;12.35;;;9.90;;
32748;SDS011;19119;52.474;13.710;2022-08-19T13:57:29;12.35;;;9.35;;
32748;SDS011;19119;52.474;13.710;2022-08-19T13:59:55;14.27;;;10.43;;
32748;SDS011;19119;52.474;13.710;2022-08-19T14:02:22;14.60;;;10.38;;
32748;SDS011;19119;52.474;13.710;2022-08-19T14:04:48;13.80;;;11.30;;
32748;SDS011;19119;52.474;13.710;2022-08-19T14:07:13;12.32;;;9.98;;
32748;SDS011;19119;52.474;13.710;2022-08-19T14:09:39;12.90;;;10.35;;
32748;SDS011;19119;52.474;13.710;2022-08-19T14:12:04;12.48;;;10.10;;
32748;SDS011;19119;52.474;13.710;2022-08-19T14:14:30;14.10;;;10.55;;
32748;SDS011;19119;52.474;13.710;2022-08-19T14:16:56;11.68;;;10.40;;
32748;SDS011;19119;52.474;13.710;2022-08-19T14:19:21;12.43;;;10.80;;
32748;SDS011;19119;52.474;13.710;2022-08-19T14:21:47;11.85;;;10.57;;
32748;SDS011;19119;52.474;13.710;2022-08-19T14:24:13;12.20;;;10.23;;
32748;SDS011;19119;52.474;13.710;2022-08-19T14:26:38;12.23;;;10.27;;